KFFM

Fergus Falls Municipal-Einar Mickelson Field Airport

Fergus Falls, Minnesota, USA
METAR KFFM 210355Z AUTO 10003KT 10SM CLR 15/01 A3010 RMK AO2
Observed Flight Rules
May-21 @ 03:55 UTC (3 hours ago) Visual Flight Rules
Wind Visibility Clouds
100° at 3 knots 10 miles
  • Clear skies
Temperatures Readings
Current 15°C / 59°F
Dewpoint 1°C / 34°F
Humidity 39%
Altimeter 30.1" Hg
Pressure 1019 hPa
Elevation 361
METAR KFFM 210355Z AUTO 10003KT 10SM CLR 15/01 A3010 RMK AO2
Observed Flight Rules
May-21 @ 03:55 UTC
(3 hours ago)
VFR
Wind Visibility
100° at 3 knots 10 miles
Clouds
  • Clear skies
Temperature Dewpoint
15°C / 59°F 1°C / 34°F
Humidity Altimeter Pressure
39% 30.1" Hg 1019 hPa